createdAt,value
2023-08-27T00:00:56.114Z,65.45
2023-08-27T00:03:32.528Z,65.67
2023-08-27T00:06:08.676Z,66.17
2023-08-27T00:08:42.090Z,66.31
2023-08-27T00:11:22.387Z,67.06
2023-08-27T00:14:04.578Z,67.70
2023-08-27T00:16:51.611Z,67.59
2023-08-27T00:19:30.708Z,67.57
2023-08-27T00:22:06.172Z,67.75
2023-08-27T00:24:43.864Z,67.86
2023-08-27T00:27:27.737Z,68.57
2023-08-27T00:30:08.712Z,68.37
2023-08-27T00:32:59.383Z,68.54
2023-08-27T00:35:40.002Z,68.44
2023-08-27T00:38:25.313Z,68.59
2023-08-27T00:41:11.286Z,68.92
2023-08-27T00:43:48.474Z,69.43
2023-08-27T00:46:27.227Z,69.92
2023-08-27T00:49:16.229Z,70.70
2023-08-27T00:51:54.240Z,72.08
2023-08-27T00:54:30.596Z,73.35
2023-08-27T00:57:09.242Z,74.12
2023-08-27T00:59:51.533Z,74.70
2023-08-27T01:02:38.797Z,74.48
2023-08-27T01:05:32.457Z,75.32
2023-08-27T01:08:26.636Z,76.49
2023-08-27T01:11:16.333Z,77.39
2023-08-27T01:14:01.398Z,77.24
2023-08-27T01:16:53.222Z,77.87
2023-08-27T01:19:35.703Z,78.43
2023-08-27T01:22:26.869Z,78.38
2023-08-27T01:25:11.974Z,78.70
2023-08-27T01:27:58.605Z,79.34
2023-08-27T01:30:53.382Z,78.65
2023-08-27T01:33:35.567Z,78.90
2023-08-27T01:36:11.831Z,79.24
2023-08-27T01:38:51.701Z,79.23
2023-08-27T01:41:37.228Z,79.16
2023-08-27T01:44:15.882Z,78.85
2023-08-27T01:46:56.931Z,78.80
2023-08-27T01:49:34.212Z,78.80
2023-08-27T01:52:13.413Z,78.83
2023-08-27T01:55:08.411Z,78.61
2023-08-27T01:57:56.140Z,78.55
2023-08-27T02:00:40.883Z,78.38
2023-08-27T02:03:22.194Z,78.79
2023-08-27T02:06:02.853Z,79.05
2023-08-27T02:08:38.602Z,78.99
2023-08-27T02:11:31.722Z,79.30
2023-08-27T02:14:21.091Z,78.70
2023-08-27T02:16:58.808Z,78.67
2023-08-27T02:19:35.968Z,78.96
2023-08-27T02:22:17.580Z,78.87
2023-08-27T02:24:57.788Z,78.80
2023-08-27T02:27:53.953Z,79.00
2023-08-27T02:30:26.296Z,78.64
2023-08-27T02:33:18.473Z,78.30
2023-08-27T02:35:56.448Z,78.61
2023-08-27T02:38:39.790Z,78.60
2023-08-27T02:41:17.805Z,78.58
2023-08-27T02:43:59.353Z,78.89
2023-08-27T02:46:33.619Z,78.55
2023-08-27T02:49:12.470Z,78.51
2023-08-27T02:51:52.330Z,78.91
2023-08-27T02:54:32.010Z,78.14
2023-08-27T02:57:15.288Z,78.61
2023-08-27T02:59:56.893Z,78.77
2023-08-27T03:02:38.610Z,78.39
2023-08-27T03:05:12.269Z,79.27
2023-08-27T03:07:54.003Z,79.11
2023-08-27T03:10:35.883Z,79.02
2023-08-27T03:13:24.425Z,78.73
2023-08-27T03:16:13.240Z,79.06
2023-08-27T03:18:56.793Z,78.67
2023-08-27T03:21:30.089Z,78.44
2023-08-27T03:24:03.442Z,78.73
2023-08-27T03:26:43.816Z,78.82
2023-08-27T03:29:24.617Z,79.49
2023-08-27T03:32:06.295Z,79.51
2023-08-27T03:34:47.576Z,78.88
2023-08-27T03:37:34.823Z,79.00
2023-08-27T03:40:25.512Z,79.27
2023-08-27T03:43:03.111Z,79.23
2023-08-27T03:45:44.918Z,79.27
2023-08-27T03:48:23.724Z,78.95
2023-08-27T03:51:04.757Z,78.93
2023-08-27T03:53:46.243Z,78.96
2023-08-27T03:56:30.389Z,79.15
2023-08-27T04:02:01.697Z,79.64
2023-08-27T04:04:41.453Z,79.21
2023-08-27T04:07:21.954Z,79.61
2023-08-27T04:10:02.044Z,79.42
2023-08-27T04:12:35.117Z,79.14
2023-08-27T04:15:20.325Z,78.88
2023-08-27T04:17:57.996Z,79.45
2023-08-27T04:20:35.923Z,80.11
2023-08-27T04:23:19.047Z,80.90
2023-08-27T04:25:56.205Z,80.73
2023-08-27T04:28:29.544Z,80.92
2023-08-27T04:31:12.323Z,81.00
2023-08-27T04:36:50.577Z,80.30
2023-08-27T04:39:23.465Z,81.19
2023-08-27T04:42:05.122Z,81.32
2023-08-27T04:44:40.794Z,81.18
2023-08-27T04:47:18.363Z,81.77
2023-08-27T04:50:03.869Z,81.61
2023-08-27T04:52:55.967Z,81.04
2023-08-27T04:55:31.966Z,80.80
2023-08-27T04:58:15.818Z,81.14
2023-08-27T05:01:00.284Z,81.12
2023-08-27T05:03:52.457Z,81.97
2023-08-27T05:06:32.433Z,82.02
2023-08-27T05:09:11.106Z,82.87
2023-08-27T05:11:50.129Z,82.69
2023-08-27T05:14:32.112Z,82.69
2023-08-27T05:17:12.086Z,82.07
2023-08-27T05:19:46.252Z,82.52
2023-08-27T05:22:18.819Z,82.39
2023-08-27T05:25:10.939Z,81.99
2023-08-27T05:27:47.588Z,82.09
2023-08-27T05:30:38.233Z,82.05
2023-08-27T05:33:21.177Z,81.87
2023-08-27T05:36:04.360Z,81.43
2023-08-27T05:38:42.216Z,81.59
2023-08-27T05:41:24.756Z,81.61
2023-08-27T05:43:58.494Z,81.43
2023-08-27T05:46:39.389Z,81.29
2023-08-27T05:49:21.734Z,81.00
2023-08-27T05:52:07.554Z,81.29
2023-08-27T05:54:47.292Z,81.15
2023-08-27T05:57:30.319Z,81.30
2023-08-27T06:00:08.676Z,81.36
2023-08-27T06:02:49.876Z,80.13
2023-08-27T06:05:28.223Z,79.99
2023-08-27T06:08:09.409Z,79.12
2023-08-27T06:10:57.633Z,79.02
2023-08-27T06:13:40.707Z,78.96
2023-08-27T06:16:23.243Z,78.32
2023-08-27T06:18:54.246Z,77.46
2023-08-27T06:21:27.018Z,76.37
2023-08-27T06:24:09.725Z,76.11
2023-08-27T06:26:48.948Z,75.21
2023-08-27T06:29:28.452Z,74.22
2023-08-27T06:32:24.576Z,72.68
2023-08-27T06:35:03.801Z,72.00
2023-08-27T06:37:39.997Z,72.04
2023-08-27T06:40:26.404Z,71.81
2023-08-27T06:43:02.671Z,71.47
2023-08-27T06:45:52.305Z,70.27
2023-08-27T06:48:30.433Z,69.25
2023-08-27T06:51:03.041Z,67.32
2023-08-27T06:53:45.183Z,65.36
2023-08-27T06:56:23.883Z,64.73
2023-08-27T06:59:02.455Z,64.31
2023-08-27T07:01:46.118Z,63.84
2023-08-27T07:04:24.854Z,63.11
2023-08-27T07:07:04.115Z,63.03
2023-08-27T07:09:44.803Z,61.90
2023-08-27T07:12:15.491Z,62.04
2023-08-27T07:14:56.122Z,62.47
2023-08-27T07:17:38.164Z,62.88
2023-08-27T07:20:21.282Z,62.69
2023-08-27T07:22:53.034Z,60.97
2023-08-27T07:25:27.306Z,60.49
2023-08-27T07:28:03.914Z,60.31
2023-08-27T07:30:39.803Z,59.48
2023-08-27T07:33:32.885Z,59.52
2023-08-27T07:36:18.688Z,59.08
2023-08-27T07:38:53.839Z,58.85
2023-08-27T07:41:38.005Z,58.24
2023-08-27T07:44:11.272Z,56.63
2023-08-27T07:46:56.169Z,55.91
2023-08-27T07:49:39.052Z,55.90
2023-08-27T07:52:20.978Z,54.96
2023-08-27T07:54:56.936Z,54.21
2023-08-27T07:57:30.397Z,53.53
2023-08-27T08:00:05.370Z,52.26
2023-08-27T08:03:06.959Z,52.18
2023-08-27T08:05:47.158Z,52.12
2023-08-27T08:08:20.348Z,51.72
2023-08-27T08:11:01.981Z,50.83
2023-08-27T08:13:38.327Z,50.52
2023-08-27T08:16:18.131Z,49.66
2023-08-27T08:19:04.918Z,50.24
2023-08-27T08:21:49.306Z,49.69
2023-08-27T08:24:38.076Z,47.33
2023-08-27T08:27:26.180Z,48.16
2023-08-27T08:30:03.356Z,47.69
2023-08-27T08:32:56.938Z,46.42
2023-08-27T08:35:39.056Z,47.24
2023-08-27T08:38:21.200Z,46.17
2023-08-27T08:41:06.845Z,45.55
2023-08-27T08:43:48.149Z,46.26
2023-08-27T08:46:30.407Z,46.46
2023-08-27T08:49:12.277Z,45.33
2023-08-27T08:51:46.857Z,45.04
2023-08-27T08:54:36.323Z,44.42
2023-08-27T08:57:29.896Z,43.93
2023-08-27T09:00:07.508Z,44.70
2023-08-27T09:02:45.949Z,43.89
2023-08-27T09:05:26.994Z,44.03
2023-08-27T09:08:07.035Z,44.33
2023-08-27T09:10:58.294Z,43.03
2023-08-27T09:13:38.447Z,42.59
2023-08-27T09:16:11.548Z,42.78
2023-08-27T09:18:51.376Z,42.74
2023-08-27T09:21:46.046Z,42.70
2023-08-27T09:24:19.797Z,43.24
2023-08-27T09:27:10.001Z,43.31
2023-08-27T09:29:50.374Z,42.28
2023-08-27T09:32:30.055Z,42.33
2023-08-27T09:35:07.656Z,41.96
2023-08-27T09:37:48.054Z,42.84
2023-08-27T09:40:24.637Z,42.38
2023-08-27T09:43:10.696Z,42.37
2023-08-27T09:45:52.960Z,41.77
2023-08-27T09:48:40.609Z,42.47
2023-08-27T09:51:23.766Z,41.27
2023-08-27T09:54:05.225Z,40.86
2023-08-27T09:56:44.906Z,41.04
2023-08-27T09:59:24.585Z,40.50
2023-08-27T10:01:59.197Z,39.34
2023-08-27T10:04:39.358Z,40.04
2023-08-27T10:07:25.088Z,39.60
2023-08-27T10:10:13.224Z,39.92
2023-08-27T10:12:50.382Z,39.61
2023-08-27T10:15:29.325Z,39.18
2023-08-27T10:18:04.514Z,38.61
2023-08-27T10:20:46.059Z,38.92
2023-08-27T10:23:25.850Z,38.63
2023-08-27T10:26:02.748Z,37.50
2023-08-27T10:28:41.985Z,37.20
2023-08-27T10:31:28.732Z,37.53
2023-08-27T10:34:04.045Z,37.40
2023-08-27T10:36:45.758Z,37.18
2023-08-27T10:39:26.569Z,36.84
2023-08-27T10:42:03.852Z,36.54
2023-08-27T10:44:44.955Z,36.38
2023-08-27T10:47:26.940Z,35.57
2023-08-27T10:50:07.897Z,35.18
2023-08-27T10:53:01.394Z,34.32
2023-08-27T10:55:44.473Z,33.08
2023-08-27T10:58:22.574Z,33.20
2023-08-27T11:01:19.995Z,32.88
2023-08-27T11:04:05.755Z,33.17
2023-08-27T11:07:00.968Z,31.94
2023-08-27T11:09:45.000Z,32.67
2023-08-27T11:12:35.323Z,32.95
2023-08-27T11:15:28.140Z,33.10
2023-08-27T11:18:11.294Z,31.77
2023-08-27T11:21:02.051Z,30.94
2023-08-27T11:23:47.144Z,30.14
2023-08-27T11:26:37.809Z,30.10
2023-08-27T11:29:08.658Z,30.41
2023-08-27T11:31:52.126Z,30.14
2023-08-27T11:34:28.984Z,29.29
2023-08-27T11:40:11.503Z,28.97
2023-08-27T11:42:56.294Z,29.39
2023-08-27T11:45:37.103Z,29.94
2023-08-27T11:48:22.338Z,28.84
2023-08-27T11:51:01.459Z,29.46
2023-08-27T11:53:55.336Z,28.75
2023-08-27T11:56:35.608Z,29.39
2023-08-27T11:59:10.712Z,28.32
2023-08-27T12:01:51.577Z,27.88
2023-08-27T12:04:34.988Z,27.91
2023-08-27T12:07:18.184Z,27.23
2023-08-27T12:10:01.061Z,27.29
2023-08-27T12:12:43.064Z,27.71
2023-08-27T12:15:18.993Z,27.43
2023-08-27T12:18:06.399Z,27.34
2023-08-27T12:20:41.505Z,27.58
2023-08-27T12:23:34.753Z,27.03
2023-08-27T12:26:25.490Z,26.40
2023-08-27T12:28:58.788Z,25.20
2023-08-27T12:31:40.245Z,25.84
2023-08-27T12:34:18.127Z,25.07
2023-08-27T12:37:02.146Z,26.06
2023-08-27T12:39:37.518Z,25.60
2023-08-27T12:42:18.328Z,25.18
2023-08-27T12:44:56.748Z,25.01
2023-08-27T12:47:35.779Z,25.42
2023-08-27T12:50:10.848Z,25.12
2023-08-27T12:52:42.770Z,24.58
2023-08-27T12:55:33.984Z,24.74
2023-08-27T12:58:24.503Z,24.04
2023-08-27T13:01:06.379Z,24.79
2023-08-27T13:03:52.267Z,25.20
2023-08-27T13:06:34.545Z,24.95
2023-08-27T13:09:19.882Z,24.42
2023-08-27T13:12:03.876Z,23.49
2023-08-27T13:14:46.017Z,23.43
2023-08-27T13:17:24.196Z,23.37
2023-08-27T13:20:00.015Z,22.43
2023-08-27T13:22:40.191Z,22.92
2023-08-27T13:25:20.755Z,23.59
2023-08-27T13:28:08.478Z,23.26
2023-08-27T13:30:52.619Z,23.29
2023-08-27T13:33:31.318Z,22.59
2023-08-27T13:36:08.049Z,23.05
2023-08-27T13:38:44.506Z,22.82
2023-08-27T13:41:20.423Z,23.17
2023-08-27T13:44:00.420Z,22.65
2023-08-27T13:47:01.669Z,22.63
2023-08-27T13:49:39.787Z,22.59
2023-08-27T13:52:13.832Z,22.72
2023-08-27T13:54:50.230Z,22.93
2023-08-27T13:57:28.608Z,22.53
2023-08-27T14:00:12.727Z,22.68
2023-08-27T14:02:53.754Z,23.08
2023-08-27T14:05:34.884Z,23.15
2023-08-27T14:08:29.671Z,22.86
2023-08-27T14:11:08.746Z,22.80
2023-08-27T14:13:48.765Z,23.69
2023-08-27T14:16:25.026Z,23.00
2023-08-27T14:19:10.699Z,23.83
2023-08-27T14:21:53.202Z,23.55
2023-08-27T14:24:35.169Z,22.90
2023-08-27T14:27:10.473Z,22.85
2023-08-27T14:29:47.860Z,23.42
2023-08-27T14:32:23.706Z,24.10
2023-08-27T14:35:17.701Z,23.93
2023-08-27T14:38:00.596Z,25.15
2023-08-27T14:40:42.376Z,25.25
2023-08-27T14:43:21.228Z,25.31
2023-08-27T14:46:01.803Z,25.69
2023-08-27T14:48:39.010Z,25.35
2023-08-27T14:51:21.915Z,26.25
2023-08-27T14:53:58.736Z,25.88
2023-08-27T14:56:45.407Z,26.01
2023-08-27T14:59:51.427Z,26.14
2023-08-27T15:02:28.627Z,26.20
2023-08-27T15:05:05.252Z,25.87
2023-08-27T15:07:59.837Z,26.90
2023-08-27T15:10:49.581Z,27.69
2023-08-27T15:13:41.867Z,27.24
2023-08-27T15:16:20.497Z,27.57
2023-08-27T15:18:58.847Z,27.60
2023-08-27T15:21:38.985Z,27.83
2023-08-27T15:24:20.391Z,28.03
2023-08-27T15:26:56.412Z,28.35
2023-08-27T15:29:27.666Z,27.86
2023-08-27T15:32:01.767Z,27.86
2023-08-27T15:34:42.379Z,28.59
2023-08-27T15:37:14.825Z,29.10
2023-08-27T15:40:00.205Z,28.82
2023-08-27T15:42:38.132Z,29.39
2023-08-27T15:45:23.722Z,29.70
2023-08-27T15:48:04.166Z,30.75
2023-08-27T15:50:43.683Z,31.90
2023-08-27T15:53:22.687Z,32.29
2023-08-27T15:56:03.623Z,31.96
2023-08-27T15:58:34.632Z,31.95
2023-08-27T16:01:11.207Z,31.68
2023-08-27T16:03:49.496Z,32.56
2023-08-27T16:06:37.545Z,32.68
2023-08-27T16:09:09.844Z,32.30
2023-08-27T16:11:47.302Z,31.92
2023-08-27T16:14:28.041Z,32.49
2023-08-27T16:17:08.210Z,32.59
2023-08-27T16:19:44.641Z,32.66
2023-08-27T16:22:19.475Z,32.65
2023-08-27T16:24:59.764Z,32.78
2023-08-27T16:27:41.978Z,32.67
2023-08-27T16:30:24.386Z,33.19
2023-08-27T16:33:08.239Z,33.01
2023-08-27T16:35:48.550Z,32.98
2023-08-27T16:38:39.745Z,33.32
2023-08-27T16:41:28.887Z,32.96
2023-08-27T16:44:19.092Z,33.62
2023-08-27T16:47:00.349Z,33.64
2023-08-27T16:49:43.284Z,34.06
2023-08-27T16:52:21.798Z,34.08
2023-08-27T16:54:57.683Z,34.49
2023-08-27T16:57:39.079Z,34.00
2023-08-27T17:00:28.555Z,33.83
2023-08-27T17:03:04.921Z,33.57
2023-08-27T17:05:44.039Z,34.06
2023-08-27T17:08:20.779Z,33.61
2023-08-27T17:11:02.877Z,33.62
2023-08-27T17:13:45.078Z,33.71
2023-08-27T17:16:22.155Z,33.94
2023-08-27T17:19:00.619Z,34.22
2023-08-27T17:21:33.043Z,34.59
2023-08-27T17:24:06.579Z,34.60
2023-08-27T17:26:38.611Z,34.97
2023-08-27T17:29:19.615Z,35.23
2023-08-27T17:31:59.185Z,35.68
2023-08-27T17:34:38.309Z,35.78
2023-08-27T17:37:14.696Z,36.44
2023-08-27T17:39:54.364Z,36.24
2023-08-27T17:42:34.227Z,36.11
2023-08-27T17:45:14.565Z,36.98
2023-08-27T17:48:16.112Z,37.09
2023-08-27T17:50:53.330Z,37.54
2023-08-27T17:53:35.429Z,37.82
2023-08-27T17:56:17.931Z,38.10
2023-08-27T17:58:54.140Z,38.84
2023-08-27T18:01:35.570Z,39.42
2023-08-27T18:04:09.824Z,39.35
2023-08-27T18:06:49.324Z,39.80
2023-08-27T18:09:43.254Z,40.54
2023-08-27T18:12:21.357Z,40.96
2023-08-27T18:14:54.614Z,41.26
2023-08-27T18:17:46.940Z,42.25
2023-08-27T18:20:41.720Z,41.93
2023-08-27T18:23:24.979Z,42.79
2023-08-27T18:26:06.949Z,43.35
2023-08-27T18:28:45.147Z,44.22
2023-08-27T18:31:18.237Z,44.34
2023-08-27T18:34:08.741Z,44.60
2023-08-27T18:36:59.622Z,44.91
2023-08-27T18:39:30.965Z,45.35
2023-08-27T18:42:17.325Z,45.64
2023-08-27T18:45:01.020Z,45.87
2023-08-27T18:47:35.987Z,46.58
2023-08-27T18:50:17.943Z,46.94
2023-08-27T18:53:06.123Z,47.18
2023-08-27T18:55:41.642Z,47.61
2023-08-27T18:58:16.293Z,47.74
2023-08-27T19:00:51.272Z,48.74
2023-08-27T19:03:22.623Z,48.80
2023-08-27T19:06:01.104Z,48.98
2023-08-27T19:08:46.034Z,49.29
2023-08-27T19:11:20.516Z,49.97
2023-08-27T19:13:58.868Z,50.13
2023-08-27T19:16:41.295Z,50.62
2023-08-27T19:19:14.872Z,50.72
2023-08-27T19:21:54.610Z,51.09
2023-08-27T19:25:07.761Z,51.15
2023-08-27T19:27:44.820Z,51.98
2023-08-27T19:30:22.938Z,51.77
2023-08-27T19:33:24.429Z,51.91
2023-08-27T19:36:03.367Z,52.91
2023-08-27T19:38:41.377Z,52.58
2023-08-27T19:41:20.576Z,52.69
2023-08-27T19:44:00.235Z,52.29
2023-08-27T19:46:45.764Z,52.75
2023-08-27T19:49:28.331Z,52.95
2023-08-27T19:52:06.761Z,52.82
2023-08-27T19:54:46.359Z,53.24
2023-08-27T19:57:28.951Z,52.72
2023-08-27T20:00:14.313Z,53.00
2023-08-27T20:02:51.961Z,53.06
2023-08-27T20:05:32.606Z,52.73
2023-08-27T20:08:18.543Z,52.50
2023-08-27T20:10:59.362Z,52.71
2023-08-27T20:13:34.694Z,52.56
2023-08-27T20:16:15.037Z,52.99
2023-08-27T20:18:59.893Z,52.36
2023-08-27T20:21:34.157Z,51.96
2023-08-27T20:24:15.708Z,52.17
2023-08-27T20:26:54.448Z,52.11
2023-08-27T20:29:33.838Z,51.76
2023-08-27T20:32:21.306Z,52.01
2023-08-27T20:35:01.022Z,51.94
2023-08-27T20:37:35.181Z,51.39
2023-08-27T20:40:12.514Z,51.44
2023-08-27T20:42:48.488Z,51.37
2023-08-27T20:45:27.511Z,51.61
2023-08-27T20:48:06.775Z,51.22
2023-08-27T20:50:43.749Z,51.49
2023-08-27T20:53:24.353Z,51.25
2023-08-27T20:56:02.183Z,51.63
2023-08-27T20:58:45.968Z,51.49
2023-08-27T21:01:23.174Z,51.45
2023-08-27T21:04:30.515Z,51.34
2023-08-27T21:07:11.005Z,51.26
2023-08-27T21:09:57.504Z,51.25
2023-08-27T21:12:34.750Z,51.02
2023-08-27T21:15:10.150Z,50.72
2023-08-27T21:17:53.152Z,50.24
2023-08-27T21:20:44.438Z,49.79
2023-08-27T21:23:15.858Z,49.47
2023-08-27T21:25:54.918Z,49.44
2023-08-27T21:28:34.636Z,49.18
2023-08-27T21:31:31.746Z,48.67
2023-08-27T21:34:05.235Z,48.54
2023-08-27T21:36:38.768Z,48.24
2023-08-27T21:39:24.120Z,48.21
2023-08-27T21:41:58.634Z,48.40
2023-08-27T21:44:36.674Z,47.90
2023-08-27T21:47:33.792Z,48.03
2023-08-27T21:50:06.618Z,48.42
2023-08-27T21:52:53.478Z,48.69
2023-08-27T21:55:32.684Z,49.14
2023-08-27T21:58:14.698Z,49.67
2023-08-27T22:00:45.014Z,49.60
2023-08-27T22:03:21.499Z,49.97
2023-08-27T22:06:00.386Z,49.77
2023-08-27T22:08:48.090Z,50.17
2023-08-27T22:11:31.900Z,50.20
2023-08-27T22:14:10.826Z,50.37
2023-08-27T22:16:49.248Z,50.68
2023-08-27T22:19:35.050Z,50.61
2023-08-27T22:22:19.803Z,50.98
2023-08-27T22:25:07.458Z,51.08
2023-08-27T22:27:45.030Z,51.55
2023-08-27T22:30:25.050Z,51.70
2023-08-27T22:33:01.591Z,51.62
2023-08-27T22:35:52.967Z,51.66
2023-08-27T22:38:33.288Z,51.78
2023-08-27T22:41:26.524Z,52.11
2023-08-27T22:44:07.343Z,52.02
2023-08-27T22:46:49.182Z,51.77
2023-08-27T22:49:30.918Z,52.33
2023-08-27T22:52:10.640Z,52.16
2023-08-27T22:54:43.081Z,52.36
2023-08-27T22:57:28.524Z,52.22
2023-08-27T23:00:08.677Z,52.52
2023-08-27T23:02:48.405Z,52.16
2023-08-27T23:05:26.707Z,52.29
2023-08-27T23:08:05.943Z,52.02
2023-08-27T23:10:57.016Z,52.36
2023-08-27T23:13:41.176Z,52.42
2023-08-27T23:16:24.006Z,52.35
2023-08-27T23:19:04.151Z,52.73
2023-08-27T23:21:46.101Z,52.18
2023-08-27T23:24:26.269Z,52.43
2023-08-27T23:27:01.260Z,52.41
2023-08-27T23:29:50.969Z,52.82
2023-08-27T23:32:28.619Z,52.75
2023-08-27T23:35:01.752Z,53.18
2023-08-27T23:37:38.942Z,52.80
2023-08-27T23:40:12.375Z,53.56
2023-08-27T23:42:53.713Z,53.13
2023-08-27T23:45:34.367Z,53.48
2023-08-27T23:48:06.855Z,53.97
2023-08-27T23:50:44.525Z,54.17
2023-08-27T23:53:25.716Z,54.50
2023-08-27T23:56:06.987Z,54.65
2023-08-27T23:58:45.526Z,54.68
